Terminal Aerodrome Forecast
Issued by NWS Twin Cities, MN

Home | Current Version | Previous Version | Graphics & Text | Print | Product List | Glossary On
Versions: 1 2 3 4 5 6 7 8 9 10 11 12 13 14 15 16 17 18 19 20
000
FTUS43 KMPX 031421 AAA
TAFSTC
TAF AMD
KSTC 031421Z 0314/0412 20008KT P6SM VCTS SCT035CB BKN060
      TEMPO 0315/0317 5SM -TSRA BR BKN035CB
     FM031700 28008KT P6SM VCTS SCT035 BKN060CB
     FM031900 34008KT P6SM VCSH SCT040 BKN090
     FM032000 33012G20KT P6SM BKN060
     FM040100 35006KT P6SM SKC=

USA.gov is the U.S. government's official web portal to all federal, state and local government web resources and services.